Time;durP1;ratioP1;P1;durP2;ratioP2;P2;SDS_P1;SDS_P2;PMS_P1;PMS_P2;Temp;Humidity;BMP_temperature;BMP_pressure;BME280_temperature;BME280_humidity;BME280_pressure;Samples;Min_cycle;Max_cycle;Signal;HPM_P1;HPM_P2
2021/09/11 00:02:13;;;;;;;5.15;1.70;;;;;;;23.36;58.27;101229.41;5044259;28;20804;-63
2021/09/11 00:04:45;;;;;;;3.83;2.30;;;;;;;23.36;58.38;101232.09;5062570;28;20034;-63
2021/09/11 00:07:10;;;;;;;4.30;2.40;;;;;;;23.35;58.29;101233.09;5053960;28;20049;-63
2021/09/11 00:09:36;;;;;;;3.10;1.90;;;;;;;23.34;58.50;101228.78;5051615;28;20055;-63
2021/09/11 00:12:01;;;;;;;3.10;2.03;;;;;;;23.33;58.21;101230.63;5063693;28;20029;-63
2021/09/11 00:14:27;;;;;;;7.40;1.80;;;;;;;23.33;58.50;101230.63;5061390;28;20037;-63
2021/09/11 00:16:52;;;;;;;3.15;2.22;;;;;;;23.31;58.01;101236.19;5069892;28;20039;-64
2021/09/11 00:19:18;;;;;;;3.58;2.10;;;;;;;23.30;58.20;101234.56;5081444;28;20313;-64
2021/09/11 00:21:43;;;;;;;4.70;2.30;;;;;;;23.30;58.39;101237.22;5079546;28;20051;-63
2021/09/11 00:24:09;;;;;;;3.72;2.38;;;;;;;23.30;58.25;101239.09;5069858;28;20438;-64
2021/09/11 00:26:34;;;;;;;3.47;2.20;;;;;;;23.30;58.31;101242.59;5068027;28;20056;-62
2021/09/11 00:28:59;;;;;;;3.53;2.40;;;;;;;23.31;58.24;101243.41;5068186;28;20067;-64
2021/09/11 00:31:25;;;;;;;4.28;2.20;;;;;;;23.29;58.15;101235.59;5073859;28;20458;-61
2021/09/11 00:33:50;;;;;;;3.30;2.30;;;;;;;23.28;58.34;101244.66;5060958;28;20392;-63
2021/09/11 00:36:16;;;;;;;3.53;2.35;;;;;;;23.28;58.17;101247.34;5032847;28;20472;-63
2021/09/11 00:38:41;;;;;;;4.95;2.35;;;;;;;23.29;58.34;101245.47;5058472;28;20473;-62
2021/09/11 00:41:07;;;;;;;3.88;2.42;;;;;;;23.27;58.23;101242.19;5049444;28;20040;-62
2021/09/11 00:43:34;;;;;;;4.85;2.33;;;;;;;23.26;58.20;101245.91;5062966;28;20035;-63
2021/09/11 00:46:00;;;;;;;4.68;2.28;;;;;;;23.26;58.03;101248.59;5056773;28;20121;-62
2021/09/11 00:48:26;;;;;;;4.93;2.70;;;;;;;23.26;58.40;101246.72;5064616;28;20116;-61
2021/09/11 00:50:51;;;;;;;4.78;2.60;;;;;;;23.26;58.06;101246.72;5069685;28;20097;-63
2021/09/11 00:53:20;;;;;;;6.13;2.50;;;;;;;23.26;58.14;101246.72;5057003;28;20044;-61
2021/09/11 00:55:46;;;;;;;5.80;2.55;;;;;;;23.26;58.13;101246.72;5044431;28;20653;-62
2021/09/11 00:58:12;;;;;;;7.72;2.30;;;;;;;23.27;58.12;101242.19;5055902;28;20044;-62
2021/09/11 01:00:38;;;;;;;3.72;2.35;;;;;;;23.26;58.28;101243.22;5032209;28;20144;-63
2021/09/11 01:03:03;;;;;;;3.25;2.10;;;;;;;23.26;58.26;101243.22;5068107;28;20490;-64
2021/09/11 01:05:29;;;;;;;7.50;2.08;;;;;;;23.25;58.24;101245.09;5070330;28;20028;-63
2021/09/11 01:07:54;;;;;;;5.45;2.00;;;;;;;23.25;58.14;101238.91;5069785;28;20102;-62
2021/09/11 01:10:20;;;;;;;4.03;1.95;;;;;;;23.22;58.07;101234.81;5069932;28;20611;-64
2021/09/11 01:12:47;;;;;;;2.42;1.90;;;;;;;23.22;57.90;101242.84;5070234;28;20046;-65
2021/09/11 01:15:13;;;;;;;4.32;1.88;;;;;;;23.20;57.79;101231.53;5069281;28;20032;-63
2021/09/11 01:17:40;;;;;;;3.88;1.83;;;;;;;23.19;57.86;101232.53;5070514;28;20047;-63
2021/09/11 01:20:07;;;;;;;4.07;2.17;;;;;;;23.17;57.81;101231.09;5051062;28;20025;-62
2021/09/11 01:22:33;;;;;;;4.65;1.90;;;;;;;23.15;57.60;101235.84;5069226;28;20029;-61
2021/09/11 01:25:01;;;;;;;3.80;2.03;;;;;;;23.14;57.37;101231.53;5069826;28;20531;-61
2021/09/11 01:27:27;;;;;;;2.92;1.83;;;;;;;23.11;57.36;101229.28;5069703;28;20033;-61
2021/09/11 01:29:53;;;;;;;2.20;1.50;;;;;;;23.10;57.43;101228.44;5068724;28;20032;-62
2021/09/11 01:32:18;;;;;;;2.55;1.55;;;;;;;23.07;57.46;101226.19;5060255;28;20057;-62
2021/09/11 01:34:44;;;;;;;2.58;1.60;;;;;;;23.07;57.27;101234.22;5056328;28;20037;-62
2021/09/11 01:37:11;;;;;;;4.10;1.90;;;;;;;23.06;57.21;101229.09;5069939;28;20032;-62
2021/09/11 01:39:36;;;;;;;3.40;1.50;;;;;;;23.06;56.95;101229.91;5062083;28;20162;-64
2021/09/11 01:42:02;;;;;;;3.35;1.58;;;;;;;23.05;57.08;101228.25;5069325;28;20032;-62
2021/09/11 01:44:27;;;;;;;3.70;1.85;;;;;;;23.05;56.68;101222.09;5068364;28;20084;-62
2021/09/11 01:46:53;;;;;;;4.43;1.50;;;;;;;23.02;56.95;101221.44;5069435;28;20035;-65
2021/09/11 01:49:18;;;;;;;3.42;1.52;;;;;;;23.01;56.81;101210.97;5068946;28;20101;-64
2021/09/11 01:51:47;;;;;;;4.32;1.52;;;;;;;22.99;56.65;101216.53;5063551;28;20036;-63
2021/09/11 01:54:13;;;;;;;4.75;2.22;;;;;;;22.99;56.68;101213.03;5068915;28;20032;-62
2021/09/11 01:56:38;;;;;;;1.85;1.50;;;;;;;22.98;56.63;101211.38;5064344;28;20036;-61
2021/09/11 01:59:04;;;;;;;2.33;1.65;;;;;;;22.99;56.53;101213.03;5068260;28;20042;-63
2021/09/11 02:01:29;;;;;;;3.15;1.63;;;;;;;22.97;56.79;101209.75;5062369;28;20142;-63
2021/09/11 02:03:55;;;;;;;3.90;1.80;;;;;;;22.96;56.73;101200.06;5067351;28;20043;-63
2021/09/11 02:06:21;;;;;;;5.10;1.98;;;;;;;22.95;56.88;101209.97;5068270;28;20025;-64
2021/09/11 02:08:47;;;;;;;4.40;1.80;;;;;;;22.92;57.10;101206.88;5049984;28;20094;-62
2021/09/11 02:11:13;;;;;;;4.65;2.17;;;;;;;22.93;56.96;101200.50;5057402;28;20036;-63
2021/09/11 02:13:38;;;;;;;4.53;1.60;;;;;;;22.92;56.86;101205.03;5072118;28;20131;-63
2021/09/11 02:16:05;;;;;;;2.35;1.40;;;;;;;22.93;56.91;101205.84;5076054;28;20557;-63
2021/09/11 02:18:31;;;;;;;3.15;1.70;;;;;;;22.94;57.17;101200.28;5077826;28;20038;-62
2021/09/11 02:20:57;;;;;;;2.75;1.90;;;;;;;22.96;57.34;101198.22;5061195;28;20115;-62
2021/09/11 02:23:23;;;;;;;4.35;2.00;;;;;;;22.99;56.97;101188.94;5076407;28;20044;-62
2021/09/11 02:25:50;;;;;;;3.95;2.20;;;;;;;23.01;57.03;101186.88;5051724;28;20122;-63
2021/09/11 02:28:15;;;;;;;3.45;1.77;;;;;;;23.04;56.86;101182.97;5070312;28;20035;-62
2021/09/11 02:30:43;;;;;;;3.78;1.50;;;;;;;23.07;56.92;101190.59;5062692;28;20452;-62
2021/09/11 02:33:09;;;;;;;3.45;1.50;;;;;;;23.08;57.22;101186.88;5071594;28;20537;-62
2021/09/11 02:35:34;;;;;;;2.40;1.50;;;;;;;23.08;57.13;101185.03;5075417;28;20048;-63
2021/09/11 02:37:59;;;;;;;2.88;1.70;;;;;;;23.10;56.94;101187.50;5067196;28;20178;-63
2021/09/11 02:40:25;;;;;;;5.00;2.08;;;;;;;23.12;57.15;101185.41;5078533;28;20076;-63
2021/09/11 02:42:50;;;;;;;2.35;1.45;;;;;;;23.11;56.83;101184.59;5074006;28;20071;-63
2021/09/11 02:45:16;;;;;;;2.30;1.52;;;;;;;23.14;56.92;101175.31;5063234;28;20034;-62
2021/09/11 02:47:41;;;;;;;2.92;1.60;;;;;;;23.14;56.93;101175.31;5029776;28;20043;-62
2021/09/11 02:50:07;;;;;;;2.58;1.65;;;;;;;23.15;57.13;101185.81;5033098;28;20036;-63
2021/09/11 02:52:32;;;;;;;3.72;1.88;;;;;;;23.16;56.71;101182.09;5064155;28;20070;-63
2021/09/11 02:54:58;;;;;;;2.20;1.60;;;;;;;23.17;56.97;101186.41;5024458;28;20116;-63
2021/09/11 02:57:23;;;;;;;2.63;1.88;;;;;;;23.17;57.06;101183.75;5088436;28;20166;-63
2021/09/11 02:59:49;;;;;;;2.33;1.40;;;;;;;23.17;56.81;101191.78;5087744;28;20040;-63
2021/09/11 03:02:14;;;;;;;2.30;1.70;;;;;;;23.18;56.98;101198.75;5043209;28;20063;-63
2021/09/11 03:04:40;;;;;;;2.75;1.70;;;;;;;23.19;57.00;101197.72;5076159;28;20395;-62
2021/09/11 03:07:05;;;;;;;2.30;1.63;;;;;;;23.19;56.94;101192.38;5052486;28;20697;-62
2021/09/11 03:09:30;;;;;;;2.65;1.83;;;;;;;23.20;56.72;101202.06;5068080;28;20730;-63
2021/09/11 03:11:56;;;;;;;2.67;1.88;;;;;;;23.20;56.77;101199.41;5067828;28;20046;-63
2021/09/11 03:14:21;;;;;;;2.40;1.95;;;;;;;23.21;56.54;101202.91;5067023;28;20054;-63
2021/09/11 03:16:47;;;;;;;2.42;1.90;;;;;;;23.21;56.72;101205.56;5067859;28;20197;-63
2021/09/11 03:19:12;;;;;;;2.63;1.85;;;;;;;23.22;56.82;101207.22;5066885;28;20060;-63
2021/09/11 03:21:38;;;;;;;3.88;1.98;;;;;;;23.21;56.63;101218.97;5067641;28;20442;-63
2021/09/11 03:24:03;;;;;;;2.72;2.00;;;;;;;23.21;56.73;101211.75;5066751;28;20037;-63
2021/09/11 03:26:29;;;;;;;2.38;1.55;;;;;;;23.21;56.72;101216.28;5067402;28;20411;-62
2021/09/11 03:28:54;;;;;;;2.85;1.98;;;;;;;23.21;56.60;101219.78;5067163;28;20394;-62
2021/09/11 03:31:20;;;;;;;3.10;1.98;;;;;;;23.22;56.56;101221.41;5049475;28;20047;-63
2021/09/11 03:33:45;;;;;;;4.95;2.50;;;;;;;23.22;56.99;101216.06;5067413;28;20050;-63
2021/09/11 03:36:11;;;;;;;3.65;2.28;;;;;;;23.22;56.73;101216.06;5048615;28;20158;-63
2021/09/11 03:38:36;;;;;;;2.97;2.20;;;;;;;23.23;56.68;101223.06;5067678;28;20052;-62
2021/09/11 03:41:02;;;;;;;2.83;1.63;;;;;;;23.22;56.74;101216.06;5067259;28;20044;-63
2021/09/11 03:43:27;;;;;;;3.53;1.83;;;;;;;23.24;56.65;101231.91;5032863;28;20364;-62
2021/09/11 03:45:52;;;;;;;3.00;2.20;;;;;;;23.23;56.57;101235.63;5051482;28;20043;-62
2021/09/11 03:48:18;;;;;;;2.55;2.00;;;;;;;23.23;56.69;101230.28;5035325;28;20028;-62
2021/09/11 03:50:43;;;;;;;2.55;1.85;;;;;;;23.24;56.46;101237.25;5071549;28;20040;-63
2021/09/11 03:53:09;;;;;;;2.17;1.73;;;;;;;23.22;56.51;101234.81;5052335;28;20040;-63
2021/09/11 03:55:34;;;;;;;3.58;2.05;;;;;;;23.23;56.61;101232.94;5071111;28;20418;-63
2021/09/11 03:58:00;;;;;;;2.60;2.00;;;;;;;23.23;56.57;101244.47;5070975;28;20028;-63
2021/09/11 04:00:25;;;;;;;2.78;1.77;;;;;;;23.22;56.46;101242.84;5048860;28;20618;-63
2021/09/11 04:02:51;;;;;;;2.67;1.67;;;;;;;23.22;56.42;101253.53;5067169;28;20398;-63
2021/09/11 04:05:16;;;;;;;2.50;1.98;;;;;;;23.23;56.39;101251.69;5031721;28;20129;-63
2021/09/11 04:07:41;;;;;;;3.03;2.00;;;;;;;23.24;56.37;101256.00;5023948;28;20053;-63
2021/09/11 04:10:07;;;;;;;4.07;1.83;;;;;;;23.23;56.21;101263.22;5050387;28;20044;-63
2021/09/11 04:12:33;;;;;;;2.88;1.80;;;;;;;23.23;56.25;101263.22;5051032;28;20044;-62
2021/09/11 04:14:58;;;;;;;2.92;1.65;;;;;;;23.23;56.42;101260.53;5032485;28;20033;-62
2021/09/11 04:17:24;;;;;;;2.88;1.98;;;;;;;23.23;56.28;101255.19;5050502;28;20048;-62
2021/09/11 04:19:50;;;;;;;3.30;1.98;;;;;;;23.25;56.42;101261.16;5032167;28;20033;-63
2021/09/11 04:22:15;;;;;;;3.03;2.03;;;;;;;23.24;56.39;101262.19;5032012;28;20040;-63
2021/09/11 04:24:41;;;;;;;3.15;2.08;;;;;;;23.25;56.42;101263.00;5032615;28;20045;-63
2021/09/11 04:27:06;;;;;;;3.75;2.10;;;;;;;23.24;56.12;101262.19;5032426;28;20044;-63
2021/09/11 04:29:32;;;;;;;3.00;2.10;;;;;;;23.25;56.50;101266.50;5049418;28;20196;-63
2021/09/11 04:31:57;;;;;;;3.03;1.90;;;;;;;23.25;56.44;101255.78;5040308;28;20461;-63
2021/09/11 04:34:23;;;;;;;2.72;2.10;;;;;;;23.25;56.32;101255.78;5028402;28;20045;-63
2021/09/11 04:36:48;;;;;;;3.05;1.90;;;;;;;23.26;56.88;101265.47;5050988;28;20028;-63
2021/09/11 04:39:13;;;;;;;2.13;1.60;;;;;;;23.26;56.53;101256.59;5049768;28;20547;-63
2021/09/11 04:41:39;;;;;;;2.67;1.80;;;;;;;23.27;56.51;101260.94;5032664;28;20033;-63
2021/09/11 04:44:04;;;;;;;3.10;2.20;;;;;;;23.26;56.66;101270.81;5031671;28;20055;-62
2021/09/11 04:46:30;;;;;;;2.72;1.80;;;;;;;23.26;56.56;101273.50;5049983;28;20700;-63
2021/09/11 04:48:56;;;;;;;2.97;1.83;;;;;;;23.27;56.43;101271.63;5049539;28;20037;-63
2021/09/11 04:51:21;;;;;;;3.50;1.95;;;;;;;23.27;56.54;101274.31;5031687;28;20495;-63
2021/09/11 04:53:48;;;;;;;2.35;1.73;;;;;;;23.26;56.85;101276.16;5031979;28;20036;-63
2021/09/11 04:56:13;;;;;;;2.58;1.70;;;;;;;23.28;56.54;101275.97;5049496;28;20090;-62
2021/09/11 04:58:39;;;;;;;2.85;2.10;;;;;;;23.27;56.59;101277.81;5031031;28;20472;-63
2021/09/11 05:01:05;;;;;;;2.80;1.90;;;;;;;23.27;56.31;101280.50;5036436;28;20030;-62
2021/09/11 05:03:30;;;;;;;2.60;1.90;;;;;;;23.28;56.46;101281.31;5049694;28;20060;-63
2021/09/11 05:05:56;;;;;;;3.03;1.70;;;;;;;23.28;56.27;101284.81;5050141;28;20441;-63
2021/09/11 05:08:22;;;;;;;2.20;1.77;;;;;;;23.28;56.27;101276.78;5043984;28;20056;-63
2021/09/11 05:10:47;;;;;;;2.78;2.00;;;;;;;23.28;56.31;101284.81;5051776;28;20108;-63
2021/09/11 05:13:14;;;;;;;2.63;1.90;;;;;;;23.27;56.34;101283.16;5050662;28;20107;-63
2021/09/11 05:15:39;;;;;;;3.28;1.88;;;;;;;23.28;56.42;101283.97;5069886;28;20037;-62
2021/09/11 05:18:05;;;;;;;2.42;1.88;;;;;;;23.27;56.30;101287.69;5069305;28;20032;-63
2021/09/11 05:20:30;;;;;;;2.22;1.70;;;;;;;23.28;56.24;101289.34;5068866;28;20033;-62
2021/09/11 05:22:56;;;;;;;2.72;1.77;;;;;;;23.28;56.31;101286.66;5051717;28;20126;-62
2021/09/11 05:25:21;;;;;;;2.28;1.73;;;;;;;23.27;56.32;101295.72;5051405;28;20352;-63
2021/09/11 05:27:47;;;;;;;2.30;1.70;;;;;;;23.27;56.23;101303.75;5068935;28;20032;-63
2021/09/11 05:30:13;;;;;;;3.10;1.90;;;;;;;23.26;56.13;101300.25;5040612;28;20479;-63
2021/09/11 05:32:39;;;;;;;2.45;1.77;;;;;;;23.25;56.36;101298.63;5015141;28;20120;-63
2021/09/11 05:35:05;;;;;;;2.58;1.70;;;;;;;23.25;56.26;101301.28;5049071;28;20465;-63
2021/09/11 05:37:30;;;;;;;2.15;1.33;;;;;;;23.26;56.20;101289.56;5031065;28;20478;-63
2021/09/11 05:39:56;;;;;;;3.72;1.83;;;;;;;23.25;56.09;101295.94;5027817;28;20131;-63
2021/09/11 05:42:21;;;;;;;2.78;1.60;;;;;;;23.26;56.25;101299.44;5049082;28;20393;-63
2021/09/11 05:44:47;;;;;;;2.67;1.42;;;;;;;23.26;56.07;101300.25;5033394;28;20074;-63
2021/09/11 05:47:12;;;;;;;2.33;1.77;;;;;;;23.27;56.16;101298.41;5069001;28;20032;-62
2021/09/11 05:49:38;;;;;;;2.92;1.98;;;;;;;23.26;56.07;101305.63;5050048;28;20056;-63
2021/09/11 05:52:03;;;;;;;2.08;1.50;;;;;;;23.26;56.30;101304.78;5069340;28;20361;-63
2021/09/11 05:54:29;;;;;;;1.90;1.45;;;;;;;23.25;56.15;101306.66;5068257;28;20383;-63
2021/09/11 05:56:54;;;;;;;1.85;1.30;;;;;;;23.26;56.09;101313.63;5069112;28;20464;-63
2021/09/11 05:59:20;;;;;;;2.45;1.48;;;;;;;23.25;56.10;101320.03;5037954;28;20041;-62
2021/09/11 06:01:45;;;;;;;2.20;1.60;;;;;;;23.27;56.04;101320.63;5024008;28;20035;-63
2021/09/11 06:04:11;;;;;;;2.30;1.52;;;;;;;23.25;55.94;101321.88;5068015;28;20115;-63
2021/09/11 06:06:36;;;;;;;2.75;1.50;;;;;;;23.24;56.07;101322.91;5068353;28;20060;-63
2021/09/11 06:09:03;;;;;;;2.15;1.55;;;;;;;23.24;56.14;101323.75;5068552;28;20049;-63
2021/09/11 06:11:28;;;;;;;1.98;1.48;;;;;;;23.24;56.15;101322.91;5054111;28;20132;-62
2021/09/11 06:13:54;;;;;;;2.20;1.80;;;;;;;23.23;56.05;101323.94;5068310;28;20538;-63
2021/09/11 06:16:19;;;;;;;2.38;1.80;;;;;;;23.22;56.04;101339.19;5068300;28;20032;-62
2021/09/11 06:18:46;;;;;;;2.55;1.83;;;;;;;23.24;55.81;101330.94;5067709;28;20028;-63
2021/09/11 06:21:11;;;;;;;3.03;1.80;;;;;;;23.23;55.98;101331.97;5043881;28;20048;-62
2021/09/11 06:23:37;;;;;;;2.92;1.85;;;;;;;23.22;56.21;101335.69;5048321;28;20439;-63
2021/09/11 06:26:02;;;;;;;3.58;1.80;;;;;;;23.23;56.16;101343.50;5030282;28;20469;-62
2021/09/11 06:28:27;;;;;;;2.47;1.60;;;;;;;23.22;56.12;101341.88;5047708;28;20040;-62
2021/09/11 06:30:54;;;;;;;4.47;2.00;;;;;;;23.22;56.04;101343.72;5050561;28;20412;-62
2021/09/11 06:33:20;;;;;;;3.05;2.03;;;;;;;23.22;55.89;101357.94;5017860;28;20420;-63
2021/09/11 06:35:45;;;;;;;2.42;2.00;;;;;;;23.22;55.91;101352.56;5048482;28;20040;-63
2021/09/11 06:38:11;;;;;;;2.90;1.90;;;;;;;23.21;56.06;101348.25;5048034;28;20025;-63
2021/09/11 06:40:37;;;;;;;4.22;2.08;;;;;;;23.22;56.09;101360.59;5047990;28;20124;-63
2021/09/11 06:43:02;;;;;;;2.85;2.00;;;;;;;23.23;55.94;101362.25;5047874;28;20033;-62
2021/09/11 06:45:27;;;;;;;2.67;1.60;;;;;;;23.23;56.09;101366.78;5049789;28;20044;-62
2021/09/11 06:47:53;;;;;;;3.53;1.73;;;;;;;23.23;56.17;101366.78;5049355;28;20078;-62
2021/09/11 06:50:18;;;;;;;2.60;1.85;;;;;;;23.23;56.37;101370.28;5049905;28;20048;-63
2021/09/11 06:52:44;;;;;;;2.60;1.90;;;;;;;23.24;56.04;101379.13;5068378;28;20040;-62
2021/09/11 06:55:09;;;;;;;2.70;1.83;;;;;;;23.24;56.00;101371.91;5067181;28;20032;-63
2021/09/11 06:57:35;;;;;;;3.38;2.03;;;;;;;23.23;56.12;101370.28;5068001;28;20033;-63
2021/09/11 07:00:01;;;;;;;2.15;1.63;;;;;;;23.24;56.13;101371.09;5049393;28;20056;-63
2021/09/11 07:02:26;;;;;;;2.95;1.98;;;;;;;23.23;55.80;101369.44;5020082;28;20037;-62
2021/09/11 07:04:51;;;;;;;3.53;2.05;;;;;;;23.23;55.96;101372.94;5049249;28;20064;-63
2021/09/11 07:07:17;;;;;;;3.03;1.90;;;;;;;23.24;56.00;101371.09;5067579;28;20052;-62
2021/09/11 07:09:42;;;;;;;3.20;1.92;;;;;;;23.24;55.89;101381.81;5068227;28;20048;-62
2021/09/11 07:12:08;;;;;;;3.10;1.80;;;;;;;23.23;56.07;101370.28;5038573;28;20440;-63
2021/09/11 07:14:34;;;;;;;3.60;1.70;;;;;;;23.23;56.25;101375.63;5031825;28;20032;-63
2021/09/11 07:16:59;;;;;;;2.70;1.80;;;;;;;23.23;56.11;101385.50;5055683;28;20427;-63
2021/09/11 07:19:25;;;;;;;2.33;1.65;;;;;;;23.22;56.31;101382.00;5056384;28;20127;-63
2021/09/11 07:21:50;;;;;;;3.35;2.10;;;;;;;23.22;56.03;101390.03;5050921;28;20057;-62
2021/09/11 07:24:15;;;;;;;3.67;1.92;;;;;;;23.23;56.12;101393.53;5051311;28;20579;-63
2021/09/11 07:26:41;;;;;;;2.75;1.80;;;;;;;23.21;56.05;101393.75;5051752;28;20124;-63
2021/09/11 07:29:06;;;;;;;5.18;2.28;;;;;;;23.23;56.23;101390.88;5033119;28;20051;-62
2021/09/11 07:31:32;;;;;;;2.50;1.88;;;;;;;23.21;55.88;101393.75;5053426;28;20098;-62
2021/09/11 07:33:57;;;;;;;2.83;2.08;;;;;;;23.21;55.87;101392.94;5053146;28;20373;-63
2021/09/11 07:36:23;;;;;;;3.50;2.30;;;;;;;23.20;55.98;101391.28;5053224;28;20128;-63
2021/09/11 07:38:49;;;;;;;2.85;1.88;;;;;;;23.20;55.91;101391.28;5071546;28;20043;-63
2021/09/11 07:41:14;;;;;;;2.08;1.60;;;;;;;23.20;56.08;101393.97;5071062;28;20169;-63
2021/09/11 07:43:40;;;;;;;3.00;1.70;;;;;;;23.21;55.76;101390.25;5070619;28;20412;-63
2021/09/11 07:46:05;;;;;;;3.33;2.10;;;;;;;23.21;55.91;101398.28;5052840;28;20448;-64
2021/09/11 07:48:31;;;;;;;2.25;1.70;;;;;;;23.20;56.15;101402.81;5070834;28;20245;-62
2021/09/11 07:50:56;;;;;;;3.03;1.70;;;;;;;23.20;56.40;101404.66;5053878;28;20682;-63
2021/09/11 07:53:22;;;;;;;3.70;1.70;;;;;;;23.20;56.28;101413.53;5053267;28;20480;-63
2021/09/11 07:55:47;;;;;;;2.33;1.60;;;;;;;23.19;56.14;101411.84;5053456;28;20066;-63
2021/09/11 07:58:12;;;;;;;3.15;2.05;;;;;;;23.18;56.53;101414.72;5070273;28;20033;-65
2021/09/11 08:00:38;;;;;;;3.65;1.40;;;;;;;23.16;56.37;101419.47;5061046;28;20029;-63
2021/09/11 08:03:03;;;;;;;2.50;1.50;;;;;;;23.10;56.20;101412.28;5026800;28;20033;-63
2021/09/11 08:05:29;;;;;;;3.08;1.23;;;;;;;23.06;56.02;101419.06;5037645;28;20068;-63
2021/09/11 08:07:54;;;;;;;1.90;1.30;;;;;;;23.03;56.28;101422.97;5060292;28;20084;-63
2021/09/11 08:10:21;;;;;;;3.47;1.80;;;;;;;23.02;56.13;101437.38;5070999;28;20040;-63
2021/09/11 08:12:47;;;;;;;2.65;1.80;;;;;;;23.01;56.09;101425.03;5080882;28;20048;-63
2021/09/11 08:15:15;;;;;;;3.08;1.80;;;;;;;22.99;56.01;101427.91;5070100;28;20098;-62
2021/09/11 08:17:41;;;;;;;3.42;1.50;;;;;;;22.99;56.02;101429.75;5069151;28;20042;-65
2021/09/11 08:20:07;;;;;;;4.28;1.23;;;;;;;22.98;56.25;101436.97;5080626;28;20044;-62
2021/09/11 08:22:32;;;;;;;2.55;1.30;;;;;;;22.99;56.20;101438.59;5068283;28;20055;-62
2021/09/11 08:24:58;;;;;;;2.05;1.35;;;;;;;22.99;56.09;101437.78;5068033;28;20036;-63
2021/09/11 08:27:24;;;;;;;2.88;1.20;;;;;;;22.99;56.30;101443.13;5067498;28;20037;-63
2021/09/11 08:29:50;;;;;;;2.88;1.15;;;;;;;22.97;56.01;101446.00;5067177;28;20040;-63
2021/09/11 08:32:16;;;;;;;1.35;1.00;;;;;;;22.97;56.49;101442.53;5066142;28;20124;-62
2021/09/11 08:34:42;;;;;;;5.28;1.75;;;;;;;22.95;56.56;101449.94;5067008;28;20546;-62
2021/09/11 08:37:08;;;;;;;3.97;1.45;;;;;;;22.96;56.71;101443.56;5064539;28;20040;-61
2021/09/11 08:39:33;;;;;;;8.57;1.88;;;;;;;22.95;56.51;101456.09;5072552;28;20149;-62
2021/09/11 08:42:00;;;;;;;4.75;1.40;;;;;;;22.96;56.72;101449.72;5069298;28;20040;-63
2021/09/11 08:44:27;;;;;;;3.42;1.20;;;;;;;22.98;56.73;101452.19;5071595;28;20039;-63
2021/09/11 08:46:53;;;;;;;3.47;1.70;;;;;;;22.99;56.62;101460.00;5078147;28;20042;-63
2021/09/11 08:49:19;;;;;;;2.60;1.15;;;;;;;23.00;56.91;101456.31;5080188;28;20135;-63
2021/09/11 08:51:44;;;;;;;2.00;1.10;;;;;;;23.00;56.91;101458.97;5083125;28;20047;-62
2021/09/11 08:54:14;;;;;;;2.72;1.40;;;;;;;23.00;57.03;101456.31;5075771;28;20029;-63
2021/09/11 08:56:41;;;;;;;4.93;1.20;;;;;;;23.00;56.67;101469.69;5074330;28;20032;-63
2021/09/11 08:59:14;;;;;;;1.67;1.20;;;;;;;23.00;56.60;101458.97;5077312;28;20094;-63
2021/09/11 09:01:41;;;;;;;3.00;1.20;;;;;;;23.03;56.47;101471.13;5066735;28;20029;-63
2021/09/11 09:04:06;;;;;;;3.75;1.00;;;;;;;23.04;56.73;101469.28;5066608;28;20037;-62
2021/09/11 09:06:34;;;;;;;1.83;1.20;;;;;;;23.02;56.57;101467.63;5059380;28;20490;-62
2021/09/11 09:09:10;;;;;;;2.67;1.10;;;;;;;23.00;56.49;101460.84;5066860;28;20044;-62
2021/09/11 09:11:42;;;;;;;2.92;1.13;;;;;;;23.00;56.27;101466.19;5066915;28;20036;-62
2021/09/11 09:14:11;;;;;;;1.95;1.10;;;;;;;23.00;56.35;101472.38;5078182;28;20139;-63
2021/09/11 09:16:37;;;;;;;4.07;1.02;;;;;;;23.00;56.15;101471.53;5073223;28;20849;-62
2021/09/11 09:19:17;;;;;;;2.40;1.38;;;;;;;23.02;56.41;101474.81;5065969;28;20463;-63
2021/09/11 09:21:44;;;;;;;3.42;1.20;;;;;;;22.99;56.19;101478.75;5060531;28;20029;-62
2021/09/11 09:24:13;;;;;;;2.03;1.20;;;;;;;22.98;56.31;101482.44;5066496;28;20112;-62
2021/09/11 09:26:58;;;;;;;3.15;1.00;;;;;;;22.94;56.20;101477.72;5074763;28;20085;-62
2021/09/11 09:29:23;;;;;;;;;;;;;;;22.88;56.54;101476.69;5079093;28;20032;-64
2021/09/11 09:31:54;;;;;;;4.45;1.17;;;;;;;22.95;56.48;101474.84;5066976;28;19912;-63
2021/09/11 09:34:30;;;;;;;2.72;1.17;;;;;;;22.92;56.18;101472.56;5067170;28;20750;-62
2021/09/11 09:36:57;;;;;;;2.08;1.02;;;;;;;22.96;56.38;101470.31;5069817;28;20036;-62
2021/09/11 09:39:23;;;;;;;1.52;0.80;;;;;;;22.96;56.19;101470.31;5059079;28;20040;-62
2021/09/11 09:41:51;;;;;;;3.42;1.10;;;;;;;22.97;56.42;101474.63;5068863;28;20046;-62
2021/09/11 09:44:19;;;;;;;3.90;1.00;;;;;;;22.97;56.24;101471.94;5068484;28;20055;-63
2021/09/11 09:46:47;;;;;;;1.48;0.77;;;;;;;22.97;55.94;101471.94;5069747;28;20036;-62
2021/09/11 09:49:18;;;;;;;1.65;1.00;;;;;;;22.97;56.38;101469.28;5068934;28;20487;-62
2021/09/11 09:51:44;;;;;;;2.75;1.10;;;;;;;22.97;56.14;101472.78;5069671;28;20016;-62
2021/09/11 09:54:11;;;;;;;1.35;0.95;;;;;;;22.98;56.17;101465.56;5067424;28;20386;-62
2021/09/11 09:56:37;;;;;;;1.48;1.00;;;;;;;22.97;55.93;101463.94;5067771;28;20056;-62
2021/09/11 09:59:03;;;;;;;2.45;1.30;;;;;;;22.98;55.98;101461.03;5064676;28;20178;-62
2021/09/11 10:01:28;;;;;;;1.25;0.90;;;;;;;22.97;55.80;101462.06;5066858;28;20025;-62
2021/09/11 10:03:54;;;;;;;3.67;1.10;;;;;;;22.99;56.04;101464.53;5068834;28;20082;-63
2021/09/11 10:06:29;;;;;;;4.18;1.00;;;;;;;22.96;55.56;101464.94;5069327;28;20506;-62
2021/09/11 10:09:00;;;;;;;1.95;0.80;;;;;;;22.97;55.81;101466.59;5059190;28;20040;-62
2021/09/11 10:11:35;;;;;;;1.88;1.00;;;;;;;22.96;55.85;101467.63;5069179;28;20040;-62
2021/09/11 10:14:04;;;;;;;2.38;1.00;;;;;;;22.98;55.35;101465.56;5058926;28;20041;-62
2021/09/11 10:16:31;;;;;;;1.63;1.02;;;;;;;22.98;55.53;101465.56;5069050;28;20024;-62
2021/09/11 10:18:56;;;;;;;1.88;0.98;;;;;;;22.97;55.47;101461.25;5068444;28;20547;-62
2021/09/11 10:21:39;;;;;;;1.42;0.90;;;;;;;22.95;55.54;101456.09;5064349;28;20032;-62
2021/09/11 10:24:06;;;;;;;3.03;0.90;;;;;;;22.98;55.26;101460.22;5068640;28;20052;-62
2021/09/11 10:26:46;;;;;;;2.55;0.90;;;;;;;22.95;55.56;101460.63;5068680;28;20037;-62
2021/09/11 10:29:30;;;;;;;2.83;1.10;;;;;;;22.95;55.54;101463.31;5066877;28;20039;-62
2021/09/11 10:32:06;;;;;;;2.17;1.20;;;;;;;22.98;55.61;101468.25;5069117;28;20052;-63
2021/09/11 10:34:46;;;;;;;3.15;1.00;;;;;;;22.96;55.25;101459.59;5067667;28;20054;-63
2021/09/11 10:37:12;;;;;;;2.05;1.00;;;;;;;22.98;55.19;101462.91;5069005;28;20595;-63
2021/09/11 10:39:38;;;;;;;2.03;0.75;;;;;;;22.98;55.37;101473.59;5068282;28;20060;-63
2021/09/11 10:42:05;;;;;;;1.10;0.80;;;;;;;22.97;54.90;101464.75;5069061;28;20064;-63
2021/09/11 10:44:31;;;;;;;1.92;0.80;;;;;;;22.95;55.06;101460.63;5066165;28;20442;-63
2021/09/11 10:46:56;;;;;;;1.15;0.80;;;;;;;22.94;54.82;101459.81;5067421;28;20037;-63
2021/09/11 10:49:25;;;;;;;1.45;0.93;;;;;;;22.94;54.69;101465.16;5068116;28;20032;-63
2021/09/11 10:52:07;;;;;;;2.63;1.10;;;;;;;22.91;54.78;101472.78;5068879;28;20032;-63
2021/09/11 10:54:42;;;;;;;2.33;1.10;;;;;;;22.91;54.58;101472.78;5067681;28;20032;-63
2021/09/11 10:57:16;;;;;;;2.22;0.90;;;;;;;22.90;54.55;101463.94;5068821;28;20113;-63
2021/09/11 10:59:44;;;;;;;2.45;0.90;;;;;;;22.89;54.49;101459.59;5067977;28;20086;-63
2021/09/11 11:02:15;;;;;;;1.20;1.00;;;;;;;22.91;54.33;101459.41;5066917;28;20395;-63
2021/09/11 11:04:46;;;;;;;1.55;0.93;;;;;;;22.90;54.39;101457.75;5068037;28;20059;-63
2021/09/11 11:07:14;;;;;;;2.08;1.13;;;;;;;22.92;54.52;101455.69;5068567;28;20057;-63
2021/09/11 11:09:46;;;;;;;2.15;1.10;;;;;;;22.93;54.64;101457.34;5068364;28;20040;-63
2021/09/11 11:12:13;;;;;;;2.28;1.25;;;;;;;22.92;54.30;101458.38;5068945;28;20099;-63
2021/09/11 11:14:47;;;;;;;1.85;1.58;;;;;;;22.91;54.39;101460.22;5067993;28;20045;-63
2021/09/11 11:17:17;;;;;;;1.48;1.15;;;;;;;22.92;54.71;101463.72;5068623;28;20038;-63
2021/09/11 11:19:45;;;;;;;2.10;1.10;;;;;;;22.92;54.77;101464.53;5066290;28;20127;-63
2021/09/11 11:22:13;;;;;;;1.73;1.10;;;;;;;22.93;54.46;101465.38;5068124;28;20063;-63